Time;durP1;ratioP1;P1;durP2;ratioP2;P2;SDS_P1;SDS_P2;PMS_P1;PMS_P2;Temp;Humidity;BMP_temperature;BMP_pressure;BME280_temperature;BME280_humidity;BME280_pressure;Samples;Min_cycle;Max_cycle;Signal;HPM_P1;HPM_P2
2021/08/03 07:19:20;;;;;;;1.77;1.27;;;;;;;17.16;76.44;98839.66;5090732;27;20372;-81
2021/08/03 07:21:47;;;;;;;;;;;;;;;17.06;73.59;98846.81;5089480;28;20052;-79
2021/08/03 07:24:20;;;;;;;5.32;1.25;;;;;;;17.09;75.27;98832.59;5087143;28;19928;-80
2021/08/03 07:26:47;;;;;;;3.25;1.13;;;;;;;17.09;74.49;98838.91;5088626;28;20483;-79
2021/08/03 07:29:14;;;;;;;1.25;1.08;;;;;;;17.15;74.64;98824.22;5085334;28;20056;-79
2021/08/03 07:31:42;;;;;;;2.15;1.00;;;;;;;17.26;73.68;98830.00;5083814;28;20044;-80
2021/08/03 07:34:10;;;;;;;1.67;1.13;;;;;;;17.29;73.58;98827.59;5080201;28;20546;-79
2021/08/03 07:36:38;;;;;;;2.35;1.10;;;;;;;17.41;72.30;98829.53;5088900;28;20040;-80
2021/08/03 07:39:06;;;;;;;2.97;0.95;;;;;;;17.59;73.67;98832.16;5087931;28;20511;-79
2021/08/03 07:41:34;;;;;;;5.90;1.20;;;;;;;17.66;72.15;98835.63;5085155;28;20075;-79
2021/08/03 07:44:01;;;;;;;3.38;0.80;;;;;;;17.82;73.46;98835.97;5088422;28;20560;-79
2021/08/03 07:46:29;;;;;;;4.03;1.50;;;;;;;17.80;72.28;98840.88;5087435;28;20044;-79
2021/08/03 07:48:57;;;;;;;1.70;1.02;;;;;;;17.82;72.33;98844.22;5087819;28;20406;-80
2021/08/03 07:51:23;;;;;;;1.58;1.00;;;;;;;17.71;71.47;98837.66;5087513;28;20059;-79
2021/08/03 07:53:51;;;;;;;4.72;1.48;;;;;;;17.78;71.76;98843.03;5088000;28;20040;-79
2021/08/03 07:56:19;;;;;;;1.65;0.90;;;;;;;17.83;72.49;98841.22;5088154;28;20052;-79
2021/08/03 07:58:46;;;;;;;4.55;1.02;;;;;;;17.90;72.04;98852.16;5088705;28;20037;-79
2021/08/03 08:01:12;;;;;;;4.75;1.25;;;;;;;17.92;73.25;98850.00;5087809;28;20098;-79
2021/08/03 08:03:40;;;;;;;5.45;1.60;;;;;;;17.84;71.81;98851.16;5077735;28;20059;-80
2021/08/03 08:06:07;;;;;;;7.93;1.27;;;;;;;17.72;73.93;98863.22;5084756;28;20048;-79
2021/08/03 08:08:34;;;;;;;6.95;1.17;;;;;;;17.76;73.99;98858.94;5079995;28;20465;-79
2021/08/03 08:11:02;;;;;;;1.40;1.15;;;;;;;17.68;72.71;98860.97;5087866;28;20117;-80
2021/08/03 08:13:29;;;;;;;4.20;1.30;;;;;;;17.78;74.38;98856.78;5088269;28;20248;-80
2021/08/03 08:15:56;;;;;;;4.00;1.30;;;;;;;17.82;75.92;98860.72;5087270;28;20131;-80
2021/08/03 08:18:23;;;;;;;3.55;1.30;;;;;;;17.94;74.26;98858.81;5087606;28;20052;-80
2021/08/03 08:20:50;;;;;;;2.33;1.10;;;;;;;18.06;73.72;98838.75;5087926;28;20048;-80
2021/08/03 08:23:17;;;;;;;2.70;1.20;;;;;;;18.27;71.98;98843.59;5083560;28;20094;-80
2021/08/03 08:25:44;;;;;;;3.38;1.30;;;;;;;18.44;70.47;98840.94;5088057;28;20045;-81
2021/08/03 08:28:12;;;;;;;3.00;1.15;;;;;;;18.93;70.46;98841.31;5086493;28;20052;-80
2021/08/03 08:30:41;;;;;;;6.20;1.45;;;;;;;19.45;69.01;98837.53;5074121;28;20561;-79
2021/08/03 08:33:08;;;;;;;3.00;1.20;;;;;;;19.74;65.82;98839.38;5073671;28;20522;-80
2021/08/03 08:35:36;;;;;;;1.88;0.93;;;;;;;19.61;66.22;98838.59;5074005;28;20053;-79
2021/08/03 08:38:03;;;;;;;1.98;0.95;;;;;;;19.68;64.88;98835.69;5073279;28;20048;-79
2021/08/03 08:40:30;;;;;;;3.28;1.10;;;;;;;19.62;64.87;98834.75;5073850;28;20098;-80
2021/08/03 08:42:56;;;;;;;9.70;1.30;;;;;;;19.49;65.16;98826.00;5073840;28;20476;-81
2021/08/03 08:45:25;;;;;;;1.58;1.20;;;;;;;19.43;67.18;98834.19;5072714;28;20044;-79
2021/08/03 08:47:52;;;;;;;5.22;2.88;;;;;;;19.37;66.63;98832.44;5065912;28;20106;-80
2021/08/03 08:50:22;;;;;;;1.50;1.00;;;;;;;19.39;65.37;98849.56;5073781;28;20492;-81
2021/08/03 08:52:53;;;;;;;2.13;1.10;;;;;;;19.22;64.93;98851.47;5070979;28;20045;-80
2021/08/03 08:55:20;;;;;;;2.17;1.02;;;;;;;19.38;63.84;98850.66;5072925;28;20063;-81
2021/08/03 08:57:47;;;;;;;2.03;1.23;;;;;;;19.45;64.80;98858.75;5073755;28;20492;-80
2021/08/03 09:00:15;;;;;;;2.72;1.10;;;;;;;19.67;63.85;98849.72;5070204;28;20343;-80
2021/08/03 09:02:44;;;;;;;3.13;1.25;;;;;;;19.62;63.81;98847.72;5072063;28;20133;-81
2021/08/03 09:05:14;;;;;;;1.50;1.00;;;;;;;19.76;65.37;98849.03;5073351;28;20055;-81
2021/08/03 09:07:48;;;;;;;2.67;1.23;;;;;;;19.77;64.55;98856.25;5073975;28;20052;-80
2021/08/03 09:10:27;;;;;;;1.50;1.20;;;;;;;19.77;64.59;98860.91;5073202;28;20633;-80
2021/08/03 09:12:59;;;;;;;3.90;1.30;;;;;;;19.40;64.32;98867.75;5073772;28;20056;-81
2021/08/03 09:15:26;;;;;;;2.67;1.20;;;;;;;19.37;65.99;98878.47;5069538;28;20052;-81
2021/08/03 09:18:11;;;;;;;3.40;1.45;;;;;;;19.29;64.56;98863.19;5072699;28;20044;-81
2021/08/03 09:20:38;;;;;;;4.93;1.42;;;;;;;19.36;66.13;98860.25;5073050;28;20049;-80
2021/08/03 09:23:05;;;;;;;3.50;1.45;;;;;;;19.58;66.38;98863.91;5071988;28;20057;-80
2021/08/03 09:25:32;;;;;;;5.40;1.42;;;;;;;19.41;65.90;98874.94;5073156;28;20483;-80
2021/08/03 09:28:02;;;;;;;4.20;1.40;;;;;;;19.53;65.36;98883.16;5072496;28;20094;-81
2021/08/03 09:30:31;;;;;;;4.72;1.42;;;;;;;19.40;65.08;98867.75;5073199;28;20050;-81
2021/08/03 09:33:02;;;;;;;3.58;1.52;;;;;;;19.38;66.45;98874.63;5069936;28;20565;-80
2021/08/03 09:35:31;;;;;;;4.00;1.05;;;;;;;19.02;67.07;98874.81;5072501;28;20044;-80
2021/08/03 09:37:59;;;;;;;2.03;1.20;;;;;;;18.73;66.24;98880.31;5072074;28;20446;-80
2021/08/03 09:40:29;;;;;;;5.07;1.27;;;;;;;18.67;67.71;98888.72;5071695;28;20442;-81
2021/08/03 09:43:01;;;;;;;2.72;1.10;;;;;;;18.36;68.18;98908.16;5072115;28;20048;-81
2021/08/03 09:45:30;;;;;;;1.58;1.10;;;;;;;18.21;70.54;98905.09;5072510;28;20041;-81
2021/08/03 09:48:13;;;;;;;3.40;1.20;;;;;;;17.73;72.32;98919.91;5069957;28;20041;-81
2021/08/03 09:51:07;;;;;;;4.28;1.10;;;;;;;17.01;78.83;98929.84;5067021;28;20507;-81
2021/08/03 09:53:48;;;;;;;3.30;1.00;;;;;;;16.58;80.00;98931.66;5046934;28;20127;-79
2021/08/03 09:56:18;;;;;;;1.45;0.80;;;;;;;16.12;81.69;98930.28;5069468;28;20052;-79
2021/08/03 09:58:59;;;;;;;1.08;0.55;;;;;;;15.87;84.56;98922.09;5069455;28;20166;-79
2021/08/03 10:01:30;;;;;;;6.53;1.20;;;;;;;16.04;85.51;98936.88;5067747;28;20051;-79
2021/08/03 10:04:01;;;;;;;1.52;0.93;;;;;;;16.00;86.29;98932.09;5066250;28;20044;-79
2021/08/03 10:06:28;;;;;;;1.73;0.85;;;;;;;15.86;84.20;98923.16;5069408;28;20059;-79
2021/08/03 10:08:56;;;;;;;4.45;1.00;;;;;;;15.83;87.53;98932.66;5072576;28;20062;-79
2021/08/03 10:11:26;;;;;;;2.00;1.08;;;;;;;15.96;89.94;98919.88;5072520;28;20135;-79
2021/08/03 10:13:55;;;;;;;;;;;;;;;16.22;87.72;98938.81;5072079;28;20442;-79
2021/08/03 10:16:23;;;;;;;2.13;1.00;;;;;;;16.16;86.81;98923.28;5071276;28;20292;-79
2021/08/03 10:18:54;;;;;;;2.30;1.10;;;;;;;16.28;86.12;98923.34;5071770;28;20049;-79
2021/08/03 10:21:30;;;;;;;3.65;1.20;;;;;;;16.31;85.01;98933.03;5071769;28;20049;-79
2021/08/03 10:24:02;;;;;;;1.63;1.20;;;;;;;16.53;83.28;98934.25;5071531;28;20041;-79
2021/08/03 10:26:29;;;;;;;1.73;1.08;;;;;;;16.52;86.75;98926.25;5071815;28;20055;-79
2021/08/03 10:29:21;;;;;;;1.20;0.90;;;;;;;16.88;83.96;98932.81;5071678;28;20041;-79
2021/08/03 10:31:48;;;;;;;3.17;1.63;;;;;;;17.14;82.62;98924.19;5059641;28;20495;-80
2021/08/03 10:34:48;;;;;;;1.52;1.00;;;;;;;17.45;80.28;98902.19;5071161;28;20127;-80
2021/08/03 10:37:16;;;;;;;;;;;;;;;17.64;77.36;98908.41;5071530;28;20427;-80
2021/08/03 10:39:50;;;;;;;1.45;0.90;;;;;;;17.43;79.46;98896.06;5071476;28;20019;-80
2021/08/03 10:42:24;;;;;;;1.40;0.90;;;;;;;17.87;79.85;98886.44;5071882;28;20476;-81
2021/08/03 10:44:52;;;;;;;1.67;1.02;;;;;;;18.22;74.30;98890.25;5071644;28;20129;-81
2021/08/03 10:47:47;;;;;;;1.27;0.90;;;;;;;18.07;74.97;98879.75;5071041;28;20040;-81
2021/08/03 10:50:29;;;;;;;1.20;1.10;;;;;;;18.32;76.51;98862.97;5060108;28;20056;-81
2021/08/03 10:52:59;;;;;;;1.98;1.30;;;;;;;17.95;78.09;98840.44;5071067;28;20045;-81
2021/08/03 10:55:31;;;;;;;1.13;0.85;;;;;;;17.82;75.11;98844.22;5071580;28;20056;-81
2021/08/03 10:58:24;;;;;;;1.35;0.90;;;;;;;17.81;77.44;98837.03;5071276;28;20045;-81
2021/08/03 11:00:54;;;;;;;2.30;1.10;;;;;;;17.61;79.84;98799.75;5070945;28;20040;-81
2021/08/03 11:03:43;;;;;;;1.55;1.25;;;;;;;17.70;80.09;98800.25;5069507;28;20431;-81
2021/08/03 11:06:36;;;;;;;2.80;0.70;;;;;;;17.86;76.50;98815.19;5069350;28;20083;-81
2021/08/03 11:09:36;;;;;;;1.17;0.80;;;;;;;17.87;76.15;98816.88;5068352;28;20388;-80
2021/08/03 11:12:21;;;;;;;;;;;;;;;18.15;78.02;98826.28;5068962;28;20052;-81
2021/08/03 11:14:48;;;;;;;2.25;0.98;;;;;;;18.38;81.44;98804.22;5070842;28;19920;-81
2021/08/03 11:17:52;;;;;;;2.80;0.68;;;;;;;18.83;79.20;98808.06;5071196;28;20057;-81
2021/08/03 11:20:56;;;;;;;1.60;0.93;;;;;;;18.98;78.48;98824.06;5059410;28;20183;-81
2021/08/03 11:23:22;;;;;;;1.75;0.98;;;;;;;19.17;74.34;98819.16;5070922;28;20548;-81
2021/08/03 11:25:50;;;;;;;2.42;0.90;;;;;;;19.71;74.88;98801.25;5070994;28;20040;-81
2021/08/03 11:28:19;;;;;;;0.90;0.80;;;;;;;19.88;74.09;98795.72;5071341;28;20041;-81
2021/08/03 11:30:52;;;;;;;0.80;0.80;;;;;;;20.10;71.49;98793.00;5071225;28;20049;-81
2021/08/03 11:33:21;;;;;;;1.05;0.95;;;;;;;20.03;75.31;98786.81;5070608;28;20056;-81
2021/08/03 11:35:49;;;;;;;0.80;0.70;;;;;;;19.53;71.38;98783.91;5071692;28;20478;-81
2021/08/03 11:38:19;;;;;;;1.70;1.00;;;;;;;19.75;69.96;98772.91;5070082;28;20052;-81
2021/08/03 11:40:46;;;;;;;1.40;0.88;;;;;;;20.04;70.03;98771.91;5071079;28;20044;-82
2021/08/03 11:43:15;;;;;;;0.63;0.63;;;;;;;20.31;70.48;98788.56;5070704;28;20059;-82
2021/08/03 11:45:42;;;;;;;3.03;0.90;;;;;;;20.30;68.22;98782.19;5071227;28;20040;-82
2021/08/03 11:48:16;;;;;;;1.15;0.90;;;;;;;;;;5070609;28;20037;-82
2021/08/03 11:51:16;;;;;;;1.75;0.90;;;;;;;20.35;72.52;98781.41;5064148;28;20040;-82
2021/08/03 11:53:43;;;;;;;0.85;0.82;;;;;;;20.15;72.01;98773.72;5068290;28;20423;-82
2021/08/03 11:56:36;;;;;;;1.90;0.80;;;;;;;19.89;72.56;98764.31;5063286;28;20072;-81
2021/08/03 11:59:32;;;;;;;2.38;0.90;;;;;;;19.58;73.03;98769.34;5062522;28;20053;-81
2021/08/03 12:01:59;;;;;;;1.17;0.80;;;;;;;19.82;72.96;98769.16;5064919;28;20476;-81
2021/08/03 12:04:27;;;;;;;2.78;0.90;;;;;;;19.88;72.38;98760.69;5071003;28;20095;-81
2021/08/03 12:06:55;;;;;;;1.45;1.00;;;;;;;19.75;69.72;98766.53;5069270;28;20045;-81
2021/08/03 12:09:22;;;;;;;1.77;0.88;;;;;;;19.53;72.63;98761.03;5074479;28;20044;-81
2021/08/03 12:11:58;;;;;;;0.98;0.77;;;;;;;19.88;72.70;98743.31;5066587;28;20053;-81
2021/08/03 12:14:37;;;;;;;1.35;0.90;;;;;;;20.08;73.51;98735.31;5073823;28;20060;-81
2021/08/03 12:17:07;;;;;;;1.42;0.93;;;;;;;20.06;71.72;98750.44;5074492;28;20113;-82
2021/08/03 12:19:35;;;;;;;2.70;0.80;;;;;;;20.22;71.78;98762.47;5074738;28;20479;-82
2021/08/03 12:22:04;;;;;;;2.10;0.90;;;;;;;20.02;69.62;98739.06;5074126;28;20048;-82
2021/08/03 12:24:31;;;;;;;1.48;0.90;;;;;;;20.02;72.05;98746.53;5074466;28;20048;-82
2021/08/03 12:27:15;;;;;;;6.00;0.98;;;;;;;19.73;70.61;98730.94;5073603;28;20075;-82
2021/08/03 12:29:43;;;;;;;2.13;0.90;;;;;;;19.69;73.21;98724.31;5069405;28;20045;-81
2021/08/03 12:32:11;;;;;;;1.15;1.05;;;;;;;19.80;73.79;98700.47;5073915;28;20049;-82
2021/08/03 12:34:40;;;;;;;1.90;1.02;;;;;;;19.73;73.03;98694.28;5073888;28;20040;-81
2021/08/03 12:37:07;;;;;;;1.38;0.90;;;;;;;19.95;72.02;98703.41;5072423;28;20052;-81
2021/08/03 12:39:40;;;;;;;3.40;1.15;;;;;;;20.02;73.43;98700.44;5073990;28;20044;-82
2021/08/03 12:42:19;;;;;;;3.40;1.00;;;;;;;20.10;72.43;98713.78;5072456;28;20060;-82
2021/08/03 12:44:51;;;;;;;2.85;1.02;;;;;;;19.96;71.41;98710.59;5073322;28;20040;-81
2021/08/03 12:47:19;;;;;;;3.95;1.25;;;;;;;20.12;72.49;98719.06;5073681;28;20431;-81
2021/08/03 12:49:48;;;;;;;2.13;1.25;;;;;;;20.31;71.45;98714.03;5074185;28;20105;-81
2021/08/03 12:52:17;;;;;;;2.88;1.30;;;;;;;21.14;70.48;98713.69;5074301;28;20373;-81
2021/08/03 12:54:56;;;;;;;1.80;1.17;;;;;;;21.29;69.28;98703.84;5073108;28;20044;-81
2021/08/03 12:57:24;;;;;;;1.85;1.10;;;;;;;22.00;69.31;98702.56;5073620;28;20060;-81
2021/08/03 12:59:52;;;;;;;1.73;1.15;;;;;;;22.14;64.75;98691.81;5071891;28;20495;-81
2021/08/03 13:02:19;;;;;;;1.52;1.40;;;;;;;22.28;64.40;98695.72;5073426;28;20553;-81
2021/08/03 13:04:47;;;;;;;3.03;1.08;;;;;;;22.43;64.52;98690.25;5072887;28;20052;-81
2021/08/03 13:07:15;;;;;;;2.63;0.90;;;;;;;22.59;65.20;98693.88;5073708;28;20484;-81
2021/08/03 13:09:42;;;;;;;3.22;0.95;;;;;;;22.62;62.00;98695.25;5073168;28;20137;-81
2021/08/03 13:12:10;;;;;;;2.10;1.15;;;;;;;21.86;64.48;98688.38;5073079;28;20518;-81
2021/08/03 13:14:44;;;;;;;2.45;1.35;;;;;;;22.10;65.01;98674.94;5072559;28;20139;-80
2021/08/03 13:17:12;;;;;;;1.60;1.20;;;;;;;21.96;62.60;98663.53;5073044;28;20132;-81
2021/08/03 13:19:39;;;;;;;2.50;0.90;;;;;;;22.00;61.86;98663.81;5073417;28;20056;-81
2021/08/03 13:22:06;;;;;;;1.42;1.30;;;;;;;22.38;63.71;98662.53;5071648;28;20048;-81
2021/08/03 13:24:34;;;;;;;1.40;0.90;;;;;;;22.42;60.44;98657.31;5064810;28;20044;-81
2021/08/03 13:27:01;;;;;;;1.27;0.70;;;;;;;22.05;59.95;98666.59;5072329;28;20052;-81
2021/08/03 13:29:28;;;;;;;1.52;0.90;;;;;;;21.83;62.24;98669.56;5073430;28;20075;-81
2021/08/03 13:31:55;;;;;;;1.92;1.10;;;;;;;21.90;58.92;98665.47;5067825;28;20040;-81
2021/08/03 13:34:23;;;;;;;0.85;0.80;;;;;;;22.09;61.06;98676.84;5072945;28;20048;-81
2021/08/03 13:36:50;;;;;;;0.80;0.80;;;;;;;22.10;56.92;98666.63;5072525;28;20506;-81
2021/08/03 13:39:17;;;;;;;1.77;0.63;;;;;;;22.78;56.05;98668.41;5073323;28;20036;-81
2021/08/03 13:41:44;;;;;;;2.30;0.90;;;;;;;22.59;54.48;98660.63;5072706;28;20048;-81
2021/08/03 13:44:11;;;;;;;0.70;0.60;;;;;;;22.84;55.65;98667.28;5072505;28;20291;-81
2021/08/03 13:46:37;;;;;;;2.53;0.90;;;;;;;22.66;57.52;98662.28;5072123;28;20040;-81
2021/08/03 13:49:04;;;;;;;2.60;0.70;;;;;;;22.40;53.40;98657.56;5072439;28;20529;-81
2021/08/03 13:51:34;;;;;;;1.80;0.77;;;;;;;22.11;55.42;98654.44;5072952;28;20070;-81
2021/08/03 13:54:00;;;;;;;1.83;0.98;;;;;;;21.66;56.50;98662.31;5066924;28;20056;-81
2021/08/03 13:56:35;;;;;;;2.25;0.70;;;;;;;21.55;59.16;98652.31;5072800;28;20094;-81
2021/08/03 13:59:02;;;;;;;0.70;0.70;;;;;;;21.63;58.88;98651.78;5072173;28;20106;-81
2021/08/03 14:01:31;;;;;;;1.33;0.90;;;;;;;21.86;59.07;98647.72;5072562;28;20048;-80
2021/08/03 14:03:58;;;;;;;0.85;0.68;;;;;;;21.94;58.36;98632.53;5072993;28;20102;-81
2021/08/03 14:06:25;;;;;;;2.05;0.80;;;;;;;22.35;57.36;98646.47;5054014;28;20056;-81
2021/08/03 14:08:54;;;;;;;1.17;0.77;;;;;;;22.27;57.60;98653.34;5068705;28;20480;-81
2021/08/03 14:11:21;;;;;;;1.27;0.90;;;;;;;22.03;59.71;98643.91;5071137;28;20110;-81
2021/08/03 14:13:47;;;;;;;1.75;1.10;;;;;;;21.82;59.55;98646.59;5071474;28;20131;-80
2021/08/03 14:16:16;;;;;;;1.50;0.70;;;;;;;21.66;59.66;98642.94;5071618;28;20056;-81
2021/08/03 14:18:43;;;;;;;1.98;0.82;;;;;;;21.77;59.58;98648.50;5073344;28;20067;-81
2021/08/03 14:21:10;;;;;;;1.85;1.08;;;;;;;22.31;59.08;98631.53;5074268;28;20044;-81
2021/08/03 14:23:38;;;;;;;1.67;0.80;;;;;;;22.14;57.36;98640.03;5073533;28;20044;-82
2021/08/03 14:26:06;;;;;;;0.63;0.60;;;;;;;22.27;59.07;98641.47;5073585;28;20097;-82
2021/08/03 14:28:33;;;;;;;1.20;0.90;;;;;;;22.27;58.85;98647.00;5072730;28;20045;-81
2021/08/03 14:31:00;;;;;;;3.70;0.68;;;;;;;22.74;58.51;98637.63;5073422;28;20044;-82
2021/08/03 14:33:27;;;;;;;1.55;0.82;;;;;;;22.63;57.73;98620.19;5073583;28;20055;-82
2021/08/03 14:35:54;;;;;;;5.05;1.02;;;;;;;22.64;58.97;98623.78;5073746;28;20052;-82
2021/08/03 14:38:21;;;;;;;0.70;0.68;;;;;;;22.95;58.83;98632.91;5073567;28;20044;-82
2021/08/03 14:40:47;;;;;;;2.40;1.02;;;;;;;23.12;57.52;98620.69;5053433;28;20052;-81
2021/08/03 14:43:17;;;;;;;1.42;0.80;;;;;;;23.05;57.60;98609.88;5053412;28;20056;-81
2021/08/03 14:45:44;;;;;;;0.90;0.65;;;;;;;22.93;57.09;98624.03;5053419;28;20083;-82
2021/08/03 14:48:11;;;;;;;2.45;0.93;;;;;;;23.15;57.99;98611.81;5055255;28;20068;-81
2021/08/03 14:50:38;;;;;;;2.20;0.63;;;;;;;23.04;55.63;98616.53;5073315;28;20055;-81
2021/08/03 14:53:06;;;;;;;3.13;0.90;;;;;;;22.86;59.07;98614.34;5073509;28;20048;-81
2021/08/03 14:55:34;;;;;;;0.88;0.65;;;;;;;22.35;58.00;98609.66;5073645;28;20135;-81
2021/08/03 14:58:00;;;;;;;2.13;0.70;;;;;;;22.43;56.43;98607.19;5073435;28;20426;-81
2021/08/03 15:00:29;;;;;;;0.75;0.57;;;;;;;22.43;55.85;98606.31;5073247;28;20051;-81
2021/08/03 15:02:56;;;;;;;4.60;0.77;;;;;;;22.54;57.10;98609.94;5073157;28;20048;-81
2021/08/03 15:05:23;;;;;;;0.68;0.68;;;;;;;22.62;56.53;98610.19;5073233;28;20380;-82
2021/08/03 15:07:49;;;;;;;1.05;0.70;;;;;;;22.47;56.44;98615.75;5071151;28;20081;-81
2021/08/03 15:10:16;;;;;;;1.05;0.73;;;;;;;22.10;57.98;98589.13;5071515;28;20036;-81
2021/08/03 15:12:43;;;;;;;2.08;0.70;;;;;;;22.05;57.75;98595.47;5071247;28;20407;-81
2021/08/03 15:15:11;;;;;;;1.05;0.65;;;;;;;22.03;58.33;98599.63;5071387;28;20325;-81
2021/08/03 15:17:39;;;;;;;0.50;0.50;;;;;;;22.01;59.55;98602.66;5072336;28;20045;-81
2021/08/03 15:20:06;;;;;;;0.63;0.63;;;;;;;21.94;58.22;98571.66;5071050;28;20143;-81
2021/08/03 15:22:33;;;;;;;2.20;0.90;;;;;;;22.17;58.86;98581.38;5071125;28;20052;-81
2021/08/03 15:25:00;;;;;;;4.57;0.95;;;;;;;21.87;58.27;98571.09;5070646;28;20052;-81
2021/08/03 15:27:27;;;;;;;0.70;0.60;;;;;;;21.81;57.37;98592.38;5070875;28;20504;-80
2021/08/03 15:29:54;;;;;;;0.75;0.75;;;;;;;21.38;57.83;98583.34;5071042;28;20041;-79
2021/08/03 15:32:20;;;;;;;1.60;0.77;;;;;;;21.16;58.87;98569.72;5071039;28;20541;-80
2021/08/03 15:34:49;;;;;;;0.82;0.70;;;;;;;21.04;59.40;98590.09;5068789;28;20049;-80
2021/08/03 15:37:15;;;;;;;3.20;0.80;;;;;;;21.09;58.68;98605.03;5071362;28;20048;-80
2021/08/03 15:39:43;;;;;;;1.95;0.60;;;;;;;21.11;59.96;98608.38;5066466;28;20040;-81
2021/08/03 15:42:09;;;;;;;0.50;0.50;;;;;;;20.95;59.85;98599.16;5075641;28;20064;-81
2021/08/03 15:44:36;;;;;;;0.60;0.60;;;;;;;20.98;58.06;98612.44;5072766;28;20045;-80
2021/08/03 15:47:03;;;;;;;0.93;0.70;;;;;;;20.78;59.51;98629.72;5074884;28;20139;-80
2021/08/03 15:49:30;;;;;;;0.90;0.90;;;;;;;20.48;62.21;98640.19;5073777;28;20102;-80
2021/08/03 15:51:59;;;;;;;1.48;0.93;;;;;;;20.16;66.87;98653.97;5074655;28;20072;-81
2021/08/03 15:54:25;;;;;;;8.23;1.02;;;;;;;19.61;72.48;98636.50;5074335;28;20048;-81
2021/08/03 15:56:52;;;;;;;4.22;0.95;;;;;;;19.19;70.62;98632.38;5074755;28;20044;-81
2021/08/03 15:59:23;;;;;;;1.88;1.25;;;;;;;19.14;72.26;98624.03;5074474;28;20055;-81
2021/08/03 16:01:50;;;;;;;1.45;1.00;;;;;;;19.29;77.17;98626.19;5070611;28;20059;-79
2021/08/03 16:04:20;;;;;;;2.33;0.98;;;;;;;19.54;78.74;98644.13;5074233;28;20048;-79
2021/08/03 16:06:47;;;;;;;3.00;1.20;;;;;;;19.37;80.27;98639.50;5074766;28;20049;-81
2021/08/03 16:09:17;;;;;;;3.33;1.20;;;;;;;19.52;80.77;98627.03;5074477;28;20052;-79
2021/08/03 16:11:46;;;;;;;0.75;0.75;;;;;;;19.36;81.22;98634.25;5073216;28;20044;-80
2021/08/03 16:14:13;;;;;;;1.48;1.00;;;;;;;19.27;78.84;98642.16;5074347;28;20473;-79
2021/08/03 16:16:40;;;;;;;3.05;1.00;;;;;;;19.41;80.13;98643.41;5072989;28;20056;-79
2021/08/03 16:19:07;;;;;;;0.88;0.88;;;;;;;19.60;78.88;98657.72;5074613;28;20052;-80
2021/08/03 16:21:35;;;;;;;2.50;1.10;;;;;;;19.51;76.75;98661.19;5074095;28;20471;-80
2021/08/03 16:24:03;;;;;;;1.40;1.20;;;;;;;19.38;76.34;98665.16;5074225;28;20050;-81
2021/08/03 16:26:38;;;;;;;2.65;1.00;;;;;;;19.30;77.71;98671.09;5074375;28;20109;-81
2021/08/03 16:29:04;;;;;;;0.80;0.80;;;;;;;18.82;70.28;98657.69;5071394;28;20053;-81
2021/08/03 16:31:33;;;;;;;1.02;0.82;;;;;;;18.72;70.61;98677.63;5068703;28;20052;-81
2021/08/03 16:34:04;;;;;;;2.75;0.60;;;;;;;18.28;69.26;98685.69;5062594;28;20045;-82
2021/08/03 16:36:33;;;;;;;1.27;0.95;;;;;;;18.05;69.11;98694.88;5077389;28;20048;-81
2021/08/03 16:39:02;;;;;;;3.08;0.70;;;;;;;18.06;70.70;98691.03;5073231;28;20076;-82
2021/08/03 16:41:35;;;;;;;0.65;0.65;;;;;;;18.04;69.98;98702.28;5073417;28;20051;-82
2021/08/03 16:44:03;;;;;;;0.95;0.85;;;;;;;17.75;69.00;98673.91;5073043;28;20098;-81
2021/08/03 16:46:30;;;;;;;1.48;0.98;;;;;;;17.70;70.11;98682.03;5073097;28;20064;-81
2021/08/03 16:49:00;;;;;;;1.10;0.90;;;;;;;17.87;69.61;98699.44;5072503;28;20339;-83
2021/08/03 16:51:30;;;;;;;2.63;0.93;;;;;;;17.79;70.08;98688.81;5072729;28;20068;-82
2021/08/03 16:53:58;;;;;;;3.58;0.77;;;;;;;17.80;70.86;98700.66;5069839;28;20317;-82
2021/08/03 16:56:29;;;;;;;0.80;0.80;;;;;;;17.75;70.61;98698.66;5073719;28;20392;-82
2021/08/03 16:59:01;;;;;;;1.27;0.85;;;;;;;17.79;70.14;98697.06;5072473;28;20048;-82
2021/08/03 17:01:34;;;;;;;2.90;1.20;;;;;;;17.87;72.40;98709.63;5054852;28;20053;-81
2021/08/03 17:04:13;;;;;;;0.82;0.73;;;;;;;17.50;68.30;98696.19;5062809;28;20075;-82
2021/08/03 17:06:48;;;;;;;1.05;0.93;;;;;;;17.21;67.64;98692.50;5067076;28;20054;-82
2021/08/03 17:09:26;;;;;;;1.52;1.00;;;;;;;17.27;72.76;98695.16;5072790;28;20136;-81
2021/08/03 17:12:07;;;;;;;2.72;0.80;;;;;;;17.22;70.07;98692.25;5069216;28;20043;-82
2021/08/03 17:14:38;;;;;;;1.80;1.05;;;;;;;17.22;72.10;98688.69;5065789;28;20049;-82
2021/08/03 17:17:07;;;;;;;2.13;1.10;;;;;;;17.31;72.21;98707.34;5072800;28;20048;-81
2021/08/03 17:19:38;;;;;;;0.82;0.82;;;;;;;17.13;73.20;98694.56;5069172;28;20400;-82
2021/08/03 17:22:10;;;;;;;1.30;1.00;;;;;;;17.02;70.92;98691.81;5072741;28;20045;-82
2021/08/03 17:24:44;;;;;;;1.58;1.10;;;;;;;17.15;72.39;98717.13;5068121;28;20098;-82
2021/08/03 17:27:16;;;;;;;1.67;1.05;;;;;;;17.05;72.44;98683.91;5072747;28;20090;-82
2021/08/03 17:29:49;;;;;;;2.20;1.30;;;;;;;17.31;73.86;98709.22;5070497;28;20048;-81
2021/08/03 17:32:16;;;;;;;1.85;0.90;;;;;;;17.20;74.54;98685.38;5072634;28;20047;-82
2021/08/03 17:34:44;;;;;;;2.65;1.02;;;;;;;17.40;72.39;98702.28;5064321;28;20106;-82
2021/08/03 17:37:12;;;;;;;1.73;1.30;;;;;;;17.30;74.24;98700.16;5072991;28;20269;-82
2021/08/03 17:39:40;;;;;;;2.88;1.17;;;;;;;17.15;72.04;98689.66;5071722;28;20052;-81
2021/08/03 17:42:09;;;;;;;1.50;0.98;;;;;;;17.19;74.03;98686.44;5072663;28;20048;-81
2021/08/03 17:44:37;;;;;;;1.70;1.00;;;;;;;17.26;72.79;98690.72;5070078;28;20051;-82
2021/08/03 17:47:09;;;;;;;1.02;0.93;;;;;;;17.12;73.30;98684.63;5072062;28;20056;-82
2021/08/03 17:49:37;;;;;;;3.25;1.20;;;;;;;17.27;75.51;98699.81;5072119;28;20098;-82
2021/08/03 17:52:05;;;;;;;2.65;1.27;;;;;;;17.20;77.33;98688.94;5072289;28;20080;-82
2021/08/03 17:54:33;;;;;;;4.55;1.15;;;;;;;17.26;77.46;98709.13;5068675;28;20045;-82
2021/08/03 17:57:01;;;;;;;1.05;0.95;;;;;;;17.18;77.67;98702.09;5071972;28;20491;-82
2021/08/03 17:59:29;;;;;;;1.85;1.20;;;;;;;17.22;75.56;98706.00;5071907;28;20056;-82
2021/08/03 18:01:58;;;;;;;3.05;1.13;;;;;;;17.25;74.69;98702.81;5063473;28;20049;-82
2021/08/03 18:04:27;;;;;;;1.45;1.10;;;;;;;16.94;76.63;98690.25;5070388;28;20051;-82
2021/08/03 18:06:54;;;;;;;2.40;1.25;;;;;;;17.13;76.26;98704.69;5071612;28;20118;-82
2021/08/03 18:09:23;;;;;;;1.38;1.00;;;;;;;16.76;75.36;98696.66;5072028;28;20049;-83
2021/08/03 18:11:49;;;;;;;2.80;1.55;;;;;;;16.95;78.36;98697.41;5071394;28;20048;-82
2021/08/03 18:14:19;;;;;;;2.38;1.15;;;;;;;16.75;77.84;98709.53;5071347;28;20052;-83
2021/08/03 18:16:47;;;;;;;2.45;1.45;;;;;;;16.70;79.11;98703.09;5070553;28;20052;-80
2021/08/03 18:19:16;;;;;;;1.90;1.17;;;;;;;16.69;79.07;98717.88;5071374;28;20044;-83
2021/08/03 18:21:52;;;;;;;1.53;1.27;;;;;;;16.61;78.73;98706.16;5071328;28;20094;-84
2021/08/03 18:24:24;;;;;;;1.60;1.10;;;;;;;16.62;80.67;98718.00;5071632;28;20059;-83
2021/08/03 18:27:06;;;;;;;2.92;1.27;;;;;;;16.72;80.66;98715.50;5071465;28;20547;-83
2021/08/03 18:29:48;;;;;;;1.80;1.13;;;;;;;16.52;80.63;98707.59;5071278;28;20479;-84
2021/08/03 18:32:25;;;;;;;1.63;1.30;;;;;;;16.63;81.64;98711.41;5069701;28;20313;-84
2021/08/03 18:35:03;;;;;;;2.45;1.48;;;;;;;16.54;82.06;98719.16;5062626;28;20506;-84
2021/08/03 18:37:43;;;;;;;3.40;1.40;;;;;;;16.37;80.26;98693.47;5072655;28;20078;-83
2021/08/03 18:40:15;;;;;;;2.05;1.20;;;;;;;16.68;80.62;98721.69;5073540;28;20048;-84
2021/08/03 18:42:46;;;;;;;3.25;1.45;;;;;;;16.53;81.12;98703.78;5073373;28;20086;-84
2021/08/03 18:45:14;;;;;;;1.10;0.93;;;;;;;16.52;81.20;98713.06;5062335;28;20048;-83
2021/08/03 18:47:41;;;;;;;5.53;1.02;;;;;;;16.33;83.37;98706.81;5071117;28;20041;-84
2021/08/03 18:50:11;;;;;;;1.30;1.20;;;;;;;16.36;83.30;98708.25;5071413;28;20055;-84
2021/08/03 18:53:07;;;;;;;1.40;1.20;;;;;;;16.41;82.34;98725.69;5070332;28;20487;-84
2021/08/03 18:55:37;;;;;;;2.00;1.20;;;;;;;16.37;83.46;98734.63;5071585;28;20127;-84
2021/08/03 18:58:04;;;;;;;1.90;1.02;;;;;;;16.17;84.15;98715.69;5071456;28;20060;-83
2021/08/03 19:00:32;;;;;;;1.88;1.30;;;;;;;16.15;83.90;98737.84;5071006;28;20049;-83
2021/08/03 19:03:00;;;;;;;2.20;1.25;;;;;;;15.93;86.18;98737.53;5070457;28;20404;-83
2021/08/03 19:05:29;;;;;;;1.70;1.30;;;;;;;15.83;84.89;98735.31;5066409;28;20047;-83
2021/08/03 19:08:13;;;;;;;1.50;1.27;;;;;;;15.88;84.12;98749.19;5068981;28;20098;-84